<?xml version="1.0" encoding="UTF-8" standalone="no" ?>
<gpx xmlns="http://www.topografix.com/GPX/1/1" xmlns:xsi="http://www.w3.org/2001/XMLSchema-instance" xsi:schemaLocation="http://www.topografix.com/GPX/1/1 http://www.topografix.com/GPX/1/1/gpx.xsd" version="1.1" creator="VisuGPX - https://www.visugpx.com">
  <metadata>
    <name>ROYAN_SIXTE_IPHONE_2020_10_14</name>
  </metadata>
  <trk>
    <name><![CDATA[ROYAN_SIXTE_IPHONE_2020_10_14]]></name>
    <extensions>
      <line xmlns="http://www.topografix.com/GPX/gpx_style/0/2">
        <width>4</width>
      </line>
    </extensions>
    <trkseg>
      <trkpt lat="45.62152" lon="-1.02413">
        <ele>1.8</ele>
        <time>2020-10-14T13:20:00.001Z</time>
      </trkpt>
      <trkpt lat="45.62152" lon="-1.02412">
        <ele>-1.7</ele>
        <time>2020-10-14T13:20:03.569Z</time>
      </trkpt>
      <trkpt lat="45.62156" lon="-1.02403">
        <ele>-0.9</ele>
        <time>2020-10-14T13:20:11.186Z</time>
      </trkpt>
      <trkpt lat="45.62159" lon="-1.02395">
        <ele>-0.7</ele>
        <time>2020-10-14T13:20:18.428Z</time>
      </trkpt>
      <trkpt lat="45.62162" lon="-1.02387">
        <ele>-0.4</ele>
        <time>2020-10-14T13:20:25.378Z</time>
      </trkpt>
      <trkpt lat="45.62161" lon="-1.02376">
        <ele>-1.1</ele>
        <time>2020-10-14T13:20:34.044Z</time>
      </trkpt>
      <trkpt lat="45.62163" lon="-1.02366">
        <ele>-1</ele>
        <time>2020-10-14T13:20:42.135Z</time>
      </trkpt>
      <trkpt lat="45.62165" lon="-1.02357">
        <ele>-1.2</ele>
        <time>2020-10-14T13:20:49.224Z</time>
      </trkpt>
      <trkpt lat="45.62166" lon="-1.02348">
        <ele>-1</ele>
        <time>2020-10-14T13:20:56.157Z</time>
      </trkpt>
      <trkpt lat="45.62166" lon="-1.02339">
        <ele>-1.6</ele>
        <time>2020-10-14T13:21:03.142Z</time>
      </trkpt>
      <trkpt lat="45.62166" lon="-1.02329">
        <ele>-0.9</ele>
        <time>2020-10-14T13:21:11.106Z</time>
      </trkpt>
      <trkpt lat="45.62165" lon="-1.02319">
        <ele>-0.5</ele>
        <time>2020-10-14T13:21:18.781Z</time>
      </trkpt>
      <trkpt lat="45.62165" lon="-1.02308">
        <ele>-0.7</ele>
        <time>2020-10-14T13:21:26.784Z</time>
      </trkpt>
      <trkpt lat="45.62163" lon="-1.02299">
        <ele>-0.7</ele>
        <time>2020-10-14T13:21:34.455Z</time>
      </trkpt>
      <trkpt lat="45.62162" lon="-1.0229">
        <ele>-0.5</ele>
        <time>2020-10-14T13:21:41.538Z</time>
      </trkpt>
      <trkpt lat="45.62161" lon="-1.02279">
        <ele>-0.5</ele>
        <time>2020-10-14T13:21:49.620Z</time>
      </trkpt>
      <trkpt lat="45.6216" lon="-1.0227">
        <ele>-0.5</ele>
        <time>2020-10-14T13:21:56.797Z</time>
      </trkpt>
      <trkpt lat="45.62161" lon="-1.02261">
        <ele>-0.6</ele>
        <time>2020-10-14T13:22:03.730Z</time>
      </trkpt>
      <trkpt lat="45.6216" lon="-1.02251">
        <ele>-0.6</ele>
        <time>2020-10-14T13:22:11.500Z</time>
      </trkpt>
      <trkpt lat="45.62158" lon="-1.02242">
        <ele>-0.2</ele>
        <time>2020-10-14T13:22:18.925Z</time>
      </trkpt>
      <trkpt lat="45.62156" lon="-1.02232">
        <ele>-0.1</ele>
        <time>2020-10-14T13:22:26.276Z</time>
      </trkpt>
      <trkpt lat="45.62154" lon="-1.02223">
        <ele>0.4</ele>
        <time>2020-10-14T13:22:33.982Z</time>
      </trkpt>
      <trkpt lat="45.62153" lon="-1.02213">
        <ele>0.5</ele>
        <time>2020-10-14T13:22:41.367Z</time>
      </trkpt>
      <trkpt lat="45.62152" lon="-1.02204">
        <ele>0.6</ele>
        <time>2020-10-14T13:22:48.279Z</time>
      </trkpt>
      <trkpt lat="45.62149" lon="-1.02196">
        <ele>0.9</ele>
        <time>2020-10-14T13:22:55.445Z</time>
      </trkpt>
      <trkpt lat="45.62147" lon="-1.02187">
        <ele>-0.2</ele>
        <time>2020-10-14T13:23:02.619Z</time>
      </trkpt>
      <trkpt lat="45.62144" lon="-1.02179">
        <ele>-1</ele>
        <time>2020-10-14T13:23:09.863Z</time>
      </trkpt>
      <trkpt lat="45.62141" lon="-1.02169">
        <ele>-1.4</ele>
        <time>2020-10-14T13:23:17.805Z</time>
      </trkpt>
      <trkpt lat="45.6214" lon="-1.02159">
        <ele>-1.3</ele>
        <time>2020-10-14T13:23:25.440Z</time>
      </trkpt>
      <trkpt lat="45.6214" lon="-1.0215">
        <ele>-1.4</ele>
        <time>2020-10-14T13:23:32.629Z</time>
      </trkpt>
      <trkpt lat="45.62136" lon="-1.02142">
        <ele>-1.9</ele>
        <time>2020-10-14T13:23:40.206Z</time>
      </trkpt>
      <trkpt lat="45.62131" lon="-1.02132">
        <ele>-1.7</ele>
        <time>2020-10-14T13:23:48.586Z</time>
      </trkpt>
      <trkpt lat="45.62128" lon="-1.02125">
        <ele>-1.9</ele>
        <time>2020-10-14T13:23:55.454Z</time>
      </trkpt>
      <trkpt lat="45.62128" lon="-1.02116">
        <ele>-1.6</ele>
        <time>2020-10-14T13:24:02.572Z</time>
      </trkpt>
      <trkpt lat="45.62124" lon="-1.02108">
        <ele>-2.3</ele>
        <time>2020-10-14T13:24:09.860Z</time>
      </trkpt>
      <trkpt lat="45.6212" lon="-1.02099">
        <ele>-2.6</ele>
        <time>2020-10-14T13:24:17.924Z</time>
      </trkpt>
      <trkpt lat="45.62117" lon="-1.02091">
        <ele>-2.1</ele>
        <time>2020-10-14T13:24:25.086Z</time>
      </trkpt>
      <trkpt lat="45.62113" lon="-1.02081">
        <ele>-2.8</ele>
        <time>2020-10-14T13:24:33.440Z</time>
      </trkpt>
      <trkpt lat="45.62109" lon="-1.02073">
        <ele>-2.8</ele>
        <time>2020-10-14T13:24:41.468Z</time>
      </trkpt>
      <trkpt lat="45.62105" lon="-1.02064">
        <ele>-3</ele>
        <time>2020-10-14T13:24:49.190Z</time>
      </trkpt>
      <trkpt lat="45.62105" lon="-1.02055">
        <ele>-2.5</ele>
        <time>2020-10-14T13:24:56.491Z</time>
      </trkpt>
      <trkpt lat="45.621" lon="-1.02049">
        <ele>-1.7</ele>
        <time>2020-10-14T13:25:03.566Z</time>
      </trkpt>
      <trkpt lat="45.62094" lon="-1.02042">
        <ele>-0.7</ele>
        <time>2020-10-14T13:25:11.843Z</time>
      </trkpt>
      <trkpt lat="45.62094" lon="-1.02032">
        <ele>-2.5</ele>
        <time>2020-10-14T13:25:19.449Z</time>
      </trkpt>
      <trkpt lat="45.62092" lon="-1.02022">
        <ele>-2</ele>
        <time>2020-10-14T13:25:27.239Z</time>
      </trkpt>
      <trkpt lat="45.62088" lon="-1.02014">
        <ele>-2.3</ele>
        <time>2020-10-14T13:25:34.758Z</time>
      </trkpt>
      <trkpt lat="45.62081" lon="-1.02009">
        <ele>-1.4</ele>
        <time>2020-10-14T13:25:43.329Z</time>
      </trkpt>
      <trkpt lat="45.62077" lon="-1.02002">
        <ele>-2.1</ele>
        <time>2020-10-14T13:25:50.499Z</time>
      </trkpt>
      <trkpt lat="45.62071" lon="-1.01997">
        <ele>-1.7</ele>
        <time>2020-10-14T13:25:57.584Z</time>
      </trkpt>
      <trkpt lat="45.6207" lon="-1.01988">
        <ele>-0.9</ele>
        <time>2020-10-14T13:26:05.156Z</time>
      </trkpt>
      <trkpt lat="45.62069" lon="-1.01979">
        <ele>-2</ele>
        <time>2020-10-14T13:26:12.375Z</time>
      </trkpt>
      <trkpt lat="45.62066" lon="-1.0197">
        <ele>-2.4</ele>
        <time>2020-10-14T13:26:19.413Z</time>
      </trkpt>
      <trkpt lat="45.62063" lon="-1.01962">
        <ele>-3.5</ele>
        <time>2020-10-14T13:26:26.454Z</time>
      </trkpt>
      <trkpt lat="45.62059" lon="-1.01954">
        <ele>-4.4</ele>
        <time>2020-10-14T13:26:34.056Z</time>
      </trkpt>
      <trkpt lat="45.62054" lon="-1.01947">
        <ele>-4.1</ele>
        <time>2020-10-14T13:26:41.860Z</time>
      </trkpt>
      <trkpt lat="45.62048" lon="-1.0194">
        <ele>-4.1</ele>
        <time>2020-10-14T13:26:49.981Z</time>
      </trkpt>
      <trkpt lat="45.62041" lon="-1.01936">
        <ele>-5.6</ele>
        <time>2020-10-14T13:26:58.265Z</time>
      </trkpt>
      <trkpt lat="45.62037" lon="-1.01928">
        <ele>-4.4</ele>
        <time>2020-10-14T13:27:05.731Z</time>
      </trkpt>
      <trkpt lat="45.62032" lon="-1.01921">
        <ele>-3.9</ele>
        <time>2020-10-14T13:27:13.472Z</time>
      </trkpt>
      <trkpt lat="45.62027" lon="-1.01914">
        <ele>-4</ele>
        <time>2020-10-14T13:27:21.208Z</time>
      </trkpt>
      <trkpt lat="45.62022" lon="-1.01907">
        <ele>-4.1</ele>
        <time>2020-10-14T13:27:29.472Z</time>
      </trkpt>
      <trkpt lat="45.62016" lon="-1.019">
        <ele>-2.9</ele>
        <time>2020-10-14T13:27:37.691Z</time>
      </trkpt>
      <trkpt lat="45.62013" lon="-1.01892">
        <ele>-3.1</ele>
        <time>2020-10-14T13:27:44.679Z</time>
      </trkpt>
      <trkpt lat="45.62008" lon="-1.01885">
        <ele>-3.5</ele>
        <time>2020-10-14T13:27:52.569Z</time>
      </trkpt>
      <trkpt lat="45.62003" lon="-1.01879">
        <ele>-3.7</ele>
        <time>2020-10-14T13:27:59.516Z</time>
      </trkpt>
      <trkpt lat="45.61998" lon="-1.01872">
        <ele>-2.9</ele>
        <time>2020-10-14T13:28:07.021Z</time>
      </trkpt>
      <trkpt lat="45.61993" lon="-1.01864">
        <ele>-2.8</ele>
        <time>2020-10-14T13:28:14.486Z</time>
      </trkpt>
      <trkpt lat="45.61988" lon="-1.01858">
        <ele>-2.9</ele>
        <time>2020-10-14T13:28:22.654Z</time>
      </trkpt>
      <trkpt lat="45.61981" lon="-1.01858">
        <ele>-2.8</ele>
        <time>2020-10-14T13:28:29.620Z</time>
      </trkpt>
      <trkpt lat="45.61975" lon="-1.01856">
        <ele>-3.1</ele>
        <time>2020-10-14T13:28:36.609Z</time>
      </trkpt>
      <trkpt lat="45.6197" lon="-1.0185">
        <ele>-2.6</ele>
        <time>2020-10-14T13:28:43.851Z</time>
      </trkpt>
      <trkpt lat="45.61965" lon="-1.01843">
        <ele>-1.4</ele>
        <time>2020-10-14T13:28:51.397Z</time>
      </trkpt>
      <trkpt lat="45.61962" lon="-1.01835">
        <ele>-1.5</ele>
        <time>2020-10-14T13:28:58.655Z</time>
      </trkpt>
      <trkpt lat="45.61955" lon="-1.01831">
        <ele>-1.5</ele>
        <time>2020-10-14T13:29:06.756Z</time>
      </trkpt>
      <trkpt lat="45.61951" lon="-1.01823">
        <ele>-1.7</ele>
        <time>2020-10-14T13:29:14.068Z</time>
      </trkpt>
      <trkpt lat="45.61947" lon="-1.01815">
        <ele>-1.9</ele>
        <time>2020-10-14T13:29:21.586Z</time>
      </trkpt>
      <trkpt lat="45.61943" lon="-1.01805">
        <ele>-2</ele>
        <time>2020-10-14T13:29:29.830Z</time>
      </trkpt>
      <trkpt lat="45.61937" lon="-1.018">
        <ele>-1.4</ele>
        <time>2020-10-14T13:29:37.676Z</time>
      </trkpt>
      <trkpt lat="45.61932" lon="-1.01793">
        <ele>-1.6</ele>
        <time>2020-10-14T13:29:45.029Z</time>
      </trkpt>
      <trkpt lat="45.61926" lon="-1.01793">
        <ele>-1.2</ele>
        <time>2020-10-14T13:29:52.019Z</time>
      </trkpt>
      <trkpt lat="45.61922" lon="-1.01785">
        <ele>-1.3</ele>
        <time>2020-10-14T13:29:59.331Z</time>
      </trkpt>
      <trkpt lat="45.61916" lon="-1.0178">
        <ele>-1.5</ele>
        <time>2020-10-14T13:30:07.103Z</time>
      </trkpt>
      <trkpt lat="45.61913" lon="-1.01769">
        <ele>-1.7</ele>
        <time>2020-10-14T13:30:15.718Z</time>
      </trkpt>
      <trkpt lat="45.61907" lon="-1.01765">
        <ele>-1.7</ele>
        <time>2020-10-14T13:30:23.327Z</time>
      </trkpt>
      <trkpt lat="45.61901" lon="-1.01762">
        <ele>-1.5</ele>
        <time>2020-10-14T13:30:30.285Z</time>
      </trkpt>
      <trkpt lat="45.61897" lon="-1.01755">
        <ele>-1</ele>
        <time>2020-10-14T13:30:37.249Z</time>
      </trkpt>
      <trkpt lat="45.6189" lon="-1.01749">
        <ele>-0.6</ele>
        <time>2020-10-14T13:30:45.642Z</time>
      </trkpt>
      <trkpt lat="45.61885" lon="-1.01742">
        <ele>-0.4</ele>
        <time>2020-10-14T13:30:53.766Z</time>
      </trkpt>
      <trkpt lat="45.61878" lon="-1.01737">
        <ele>0.1</ele>
        <time>2020-10-14T13:31:01.726Z</time>
      </trkpt>
      <trkpt lat="45.61873" lon="-1.01734">
        <ele>-0.8</ele>
        <time>2020-10-14T13:31:08.670Z</time>
      </trkpt>
      <trkpt lat="45.61866" lon="-1.01731">
        <ele>-1</ele>
        <time>2020-10-14T13:31:16.191Z</time>
      </trkpt>
      <trkpt lat="45.61861" lon="-1.01724">
        <ele>-1</ele>
        <time>2020-10-14T13:31:23.405Z</time>
      </trkpt>
      <trkpt lat="45.6186" lon="-1.01716">
        <ele>-0.8</ele>
        <time>2020-10-14T13:31:30.292Z</time>
      </trkpt>
      <trkpt lat="45.61854" lon="-1.01709">
        <ele>-0.7</ele>
        <time>2020-10-14T13:31:38.022Z</time>
      </trkpt>
      <trkpt lat="45.61848" lon="-1.01706">
        <ele>-0.5</ele>
        <time>2020-10-14T13:31:45.289Z</time>
      </trkpt>
      <trkpt lat="45.61841" lon="-1.01703">
        <ele>-1.1</ele>
        <time>2020-10-14T13:31:52.861Z</time>
      </trkpt>
      <trkpt lat="45.61836" lon="-1.01696">
        <ele>-1</ele>
        <time>2020-10-14T13:32:00.084Z</time>
      </trkpt>
      <trkpt lat="45.61831" lon="-1.0169">
        <ele>-1.2</ele>
        <time>2020-10-14T13:32:07.580Z</time>
      </trkpt>
      <trkpt lat="45.61826" lon="-1.01684">
        <ele>-0.2</ele>
        <time>2020-10-14T13:32:14.842Z</time>
      </trkpt>
      <trkpt lat="45.6182" lon="-1.01679">
        <ele>0.2</ele>
        <time>2020-10-14T13:32:22.121Z</time>
      </trkpt>
      <trkpt lat="45.61816" lon="-1.01672">
        <ele>-0.6</ele>
        <time>2020-10-14T13:32:29.450Z</time>
      </trkpt>
      <trkpt lat="45.6181" lon="-1.01667">
        <ele>-0.9</ele>
        <time>2020-10-14T13:32:36.936Z</time>
      </trkpt>
      <trkpt lat="45.61804" lon="-1.01665">
        <ele>-0.7</ele>
        <time>2020-10-14T13:32:43.816Z</time>
      </trkpt>
      <trkpt lat="45.61799" lon="-1.01659">
        <ele>-0.4</ele>
        <time>2020-10-14T13:32:50.919Z</time>
      </trkpt>
      <trkpt lat="45.61795" lon="-1.01652">
        <ele>1.3</ele>
        <time>2020-10-14T13:32:57.990Z</time>
      </trkpt>
      <trkpt lat="45.61791" lon="-1.01643">
        <ele>-0.1</ele>
        <time>2020-10-14T13:33:05.902Z</time>
      </trkpt>
      <trkpt lat="45.61785" lon="-1.01639">
        <ele>-0.5</ele>
        <time>2020-10-14T13:33:13.802Z</time>
      </trkpt>
      <trkpt lat="45.61779" lon="-1.01635">
        <ele>-0.2</ele>
        <time>2020-10-14T13:33:20.998Z</time>
      </trkpt>
      <trkpt lat="45.61773" lon="-1.01632">
        <ele>-0.4</ele>
        <time>2020-10-14T13:33:28.139Z</time>
      </trkpt>
      <trkpt lat="45.61767" lon="-1.01625">
        <ele>-0.6</ele>
        <time>2020-10-14T13:33:36.128Z</time>
      </trkpt>
      <trkpt lat="45.61762" lon="-1.0162">
        <ele>-0.7</ele>
        <time>2020-10-14T13:33:43.134Z</time>
      </trkpt>
      <trkpt lat="45.61755" lon="-1.01612">
        <ele>-0.8</ele>
        <time>2020-10-14T13:33:52.020Z</time>
      </trkpt>
      <trkpt lat="45.61749" lon="-1.0161">
        <ele>-1.3</ele>
        <time>2020-10-14T13:33:59.517Z</time>
      </trkpt>
      <trkpt lat="45.61744" lon="-1.01602">
        <ele>-1.3</ele>
        <time>2020-10-14T13:34:07.660Z</time>
      </trkpt>
      <trkpt lat="45.61739" lon="-1.01592">
        <ele>-0.7</ele>
        <time>2020-10-14T13:34:16.858Z</time>
      </trkpt>
      <trkpt lat="45.61733" lon="-1.01587">
        <ele>-0.9</ele>
        <time>2020-10-14T13:34:24.588Z</time>
      </trkpt>
      <trkpt lat="45.61727" lon="-1.01585">
        <ele>-1.8</ele>
        <time>2020-10-14T13:34:31.805Z</time>
      </trkpt>
      <trkpt lat="45.61722" lon="-1.01577">
        <ele>-1</ele>
        <time>2020-10-14T13:34:39.716Z</time>
      </trkpt>
      <trkpt lat="45.61717" lon="-1.0157">
        <ele>-0.8</ele>
        <time>2020-10-14T13:34:47.267Z</time>
      </trkpt>
      <trkpt lat="45.6171" lon="-1.0157">
        <ele>-1.1</ele>
        <time>2020-10-14T13:34:54.600Z</time>
      </trkpt>
      <trkpt lat="45.61703" lon="-1.01568">
        <ele>-1.7</ele>
        <time>2020-10-14T13:35:02.216Z</time>
      </trkpt>
      <trkpt lat="45.61699" lon="-1.01561">
        <ele>-1.6</ele>
        <time>2020-10-14T13:35:09.187Z</time>
      </trkpt>
      <trkpt lat="45.61697" lon="-1.0157">
        <ele>-0.8</ele>
        <time>2020-10-14T13:35:16.185Z</time>
      </trkpt>
      <trkpt lat="45.61691" lon="-1.01576">
        <ele>-0.5</ele>
        <time>2020-10-14T13:35:23.691Z</time>
      </trkpt>
      <trkpt lat="45.61691" lon="-1.01565">
        <ele>-0.5</ele>
        <time>2020-10-14T13:35:32.077Z</time>
      </trkpt>
      <trkpt lat="45.61692" lon="-1.01554">
        <ele>-0.4</ele>
        <time>2020-10-14T13:35:40.473Z</time>
      </trkpt>
      <trkpt lat="45.6169" lon="-1.01544">
        <ele>-0.4</ele>
        <time>2020-10-14T13:35:48.584Z</time>
      </trkpt>
      <trkpt lat="45.61683" lon="-1.01541">
        <ele>-1.3</ele>
        <time>2020-10-14T13:35:57.024Z</time>
      </trkpt>
      <trkpt lat="45.61676" lon="-1.01537">
        <ele>-1.3</ele>
        <time>2020-10-14T13:36:04.400Z</time>
      </trkpt>
      <trkpt lat="45.6167" lon="-1.0153">
        <ele>-1.2</ele>
        <time>2020-10-14T13:36:13.143Z</time>
      </trkpt>
      <trkpt lat="45.61666" lon="-1.01521">
        <ele>-0.4</ele>
        <time>2020-10-14T13:36:21.442Z</time>
      </trkpt>
      <trkpt lat="45.61661" lon="-1.01515">
        <ele>-0.1</ele>
        <time>2020-10-14T13:36:29.028Z</time>
      </trkpt>
      <trkpt lat="45.61655" lon="-1.01511">
        <ele>0.1</ele>
        <time>2020-10-14T13:36:36.250Z</time>
      </trkpt>
      <trkpt lat="45.61649" lon="-1.01505">
        <ele>-1.1</ele>
        <time>2020-10-14T13:36:44.297Z</time>
      </trkpt>
      <trkpt lat="45.61643" lon="-1.015">
        <ele>-1.4</ele>
        <time>2020-10-14T13:36:51.777Z</time>
      </trkpt>
      <trkpt lat="45.61637" lon="-1.01494">
        <ele>-1.4</ele>
        <time>2020-10-14T13:36:59.362Z</time>
      </trkpt>
      <trkpt lat="45.61631" lon="-1.01492">
        <ele>-1.8</ele>
        <time>2020-10-14T13:37:06.471Z</time>
      </trkpt>
      <trkpt lat="45.61624" lon="-1.0149">
        <ele>-2.4</ele>
        <time>2020-10-14T13:37:14.050Z</time>
      </trkpt>
      <trkpt lat="45.61618" lon="-1.01485">
        <ele>-1.5</ele>
        <time>2020-10-14T13:37:21.506Z</time>
      </trkpt>
      <trkpt lat="45.61613" lon="-1.01479">
        <ele>-2.1</ele>
        <time>2020-10-14T13:37:28.716Z</time>
      </trkpt>
      <trkpt lat="45.61606" lon="-1.01476">
        <ele>-1.9</ele>
        <time>2020-10-14T13:37:36.627Z</time>
      </trkpt>
      <trkpt lat="45.61601" lon="-1.01469">
        <ele>-2</ele>
        <time>2020-10-14T13:37:44.223Z</time>
      </trkpt>
      <trkpt lat="45.61595" lon="-1.01464">
        <ele>-2.5</ele>
        <time>2020-10-14T13:37:51.643Z</time>
      </trkpt>
      <trkpt lat="45.6159" lon="-1.01457">
        <ele>-2.4</ele>
        <time>2020-10-14T13:37:59.633Z</time>
      </trkpt>
      <trkpt lat="45.61584" lon="-1.01452">
        <ele>-2.7</ele>
        <time>2020-10-14T13:38:06.932Z</time>
      </trkpt>
      <trkpt lat="45.61579" lon="-1.01447">
        <ele>-3.2</ele>
        <time>2020-10-14T13:38:14.236Z</time>
      </trkpt>
      <trkpt lat="45.61572" lon="-1.01445">
        <ele>-3.5</ele>
        <time>2020-10-14T13:38:21.524Z</time>
      </trkpt>
      <trkpt lat="45.61567" lon="-1.01441">
        <ele>-2.9</ele>
        <time>2020-10-14T13:38:28.408Z</time>
      </trkpt>
      <trkpt lat="45.61562" lon="-1.01434">
        <ele>-3.1</ele>
        <time>2020-10-14T13:38:35.548Z</time>
      </trkpt>
      <trkpt lat="45.61557" lon="-1.01429">
        <ele>-2.9</ele>
        <time>2020-10-14T13:38:42.553Z</time>
      </trkpt>
      <trkpt lat="45.6155" lon="-1.01424">
        <ele>-3</ele>
        <time>2020-10-14T13:38:51.082Z</time>
      </trkpt>
      <trkpt lat="45.61545" lon="-1.01418">
        <ele>-2.2</ele>
        <time>2020-10-14T13:38:58.003Z</time>
      </trkpt>
      <trkpt lat="45.61541" lon="-1.01411">
        <ele>-1.5</ele>
        <time>2020-10-14T13:39:05.804Z</time>
      </trkpt>
      <trkpt lat="45.61535" lon="-1.01408">
        <ele>-1.8</ele>
        <time>2020-10-14T13:39:12.714Z</time>
      </trkpt>
      <trkpt lat="45.61528" lon="-1.01405">
        <ele>-1.7</ele>
        <time>2020-10-14T13:39:19.852Z</time>
      </trkpt>
      <trkpt lat="45.61523" lon="-1.01399">
        <ele>-1.2</ele>
        <time>2020-10-14T13:39:26.798Z</time>
      </trkpt>
      <trkpt lat="45.61517" lon="-1.01396">
        <ele>-1</ele>
        <time>2020-10-14T13:39:34.646Z</time>
      </trkpt>
      <trkpt lat="45.61514" lon="-1.01387">
        <ele>-1.4</ele>
        <time>2020-10-14T13:39:41.672Z</time>
      </trkpt>
      <trkpt lat="45.61507" lon="-1.01386">
        <ele>-1.2</ele>
        <time>2020-10-14T13:39:49.420Z</time>
      </trkpt>
      <trkpt lat="45.61502" lon="-1.01381">
        <ele>-1</ele>
        <time>2020-10-14T13:39:56.716Z</time>
      </trkpt>
      <trkpt lat="45.61495" lon="-1.01377">
        <ele>-1.3</ele>
        <time>2020-10-14T13:40:04.173Z</time>
      </trkpt>
      <trkpt lat="45.6149" lon="-1.0137">
        <ele>-2.1</ele>
        <time>2020-10-14T13:40:12.016Z</time>
      </trkpt>
      <trkpt lat="45.61485" lon="-1.01365">
        <ele>-1.2</ele>
        <time>2020-10-14T13:40:19.436Z</time>
      </trkpt>
      <trkpt lat="45.61479" lon="-1.01361">
        <ele>-2.4</ele>
        <time>2020-10-14T13:40:26.652Z</time>
      </trkpt>
      <trkpt lat="45.61473" lon="-1.01357">
        <ele>-3.5</ele>
        <time>2020-10-14T13:40:33.895Z</time>
      </trkpt>
      <trkpt lat="45.61467" lon="-1.01353">
        <ele>-3.7</ele>
        <time>2020-10-14T13:40:40.820Z</time>
      </trkpt>
      <trkpt lat="45.61461" lon="-1.01352">
        <ele>-3.6</ele>
        <time>2020-10-14T13:40:47.864Z</time>
      </trkpt>
      <trkpt lat="45.61455" lon="-1.01347">
        <ele>-3.4</ele>
        <time>2020-10-14T13:40:55.264Z</time>
      </trkpt>
      <trkpt lat="45.61451" lon="-1.01339">
        <ele>-3.3</ele>
        <time>2020-10-14T13:41:02.543Z</time>
      </trkpt>
      <trkpt lat="45.61445" lon="-1.01332">
        <ele>-3.9</ele>
        <time>2020-10-14T13:41:10.681Z</time>
      </trkpt>
      <trkpt lat="45.61439" lon="-1.01328">
        <ele>-2.8</ele>
        <time>2020-10-14T13:41:18.073Z</time>
      </trkpt>
      <trkpt lat="45.61433" lon="-1.01325">
        <ele>-3.9</ele>
        <time>2020-10-14T13:41:25.036Z</time>
      </trkpt>
      <trkpt lat="45.61427" lon="-1.01323">
        <ele>-4.2</ele>
        <time>2020-10-14T13:41:32.098Z</time>
      </trkpt>
      <trkpt lat="45.6142" lon="-1.01319">
        <ele>-4.4</ele>
        <time>2020-10-14T13:41:39.990Z</time>
      </trkpt>
      <trkpt lat="45.61415" lon="-1.01313">
        <ele>-4.3</ele>
        <time>2020-10-14T13:41:47.572Z</time>
      </trkpt>
      <trkpt lat="45.61407" lon="-1.0131">
        <ele>-3.9</ele>
        <time>2020-10-14T13:41:56.343Z</time>
      </trkpt>
      <trkpt lat="45.61402" lon="-1.01304">
        <ele>-3.5</ele>
        <time>2020-10-14T13:42:03.217Z</time>
      </trkpt>
      <trkpt lat="45.61396" lon="-1.01302">
        <ele>-4</ele>
        <time>2020-10-14T13:42:10.763Z</time>
      </trkpt>
      <trkpt lat="45.61389" lon="-1.01303">
        <ele>-4.1</ele>
        <time>2020-10-14T13:42:17.703Z</time>
      </trkpt>
      <trkpt lat="45.61384" lon="-1.01297">
        <ele>-2.5</ele>
        <time>2020-10-14T13:42:25.224Z</time>
      </trkpt>
      <trkpt lat="45.61379" lon="-1.01289">
        <ele>-2.9</ele>
        <time>2020-10-14T13:42:33.578Z</time>
      </trkpt>
      <trkpt lat="45.61374" lon="-1.01281">
        <ele>-3.2</ele>
        <time>2020-10-14T13:42:41.456Z</time>
      </trkpt>
      <trkpt lat="45.61379" lon="-1.01289">
        <ele>-5.4</ele>
        <time>2020-10-14T13:42:49.533Z</time>
      </trkpt>
      <trkpt lat="45.61385" lon="-1.0129">
        <ele>-4.4</ele>
        <time>2020-10-14T13:42:56.580Z</time>
      </trkpt>
      <trkpt lat="45.6139" lon="-1.01299">
        <ele>-2</ele>
        <time>2020-10-14T13:43:04.992Z</time>
      </trkpt>
      <trkpt lat="45.61397" lon="-1.01294">
        <ele>-2.3</ele>
        <time>2020-10-14T13:43:13.079Z</time>
      </trkpt>
      <trkpt lat="45.61402" lon="-1.013">
        <ele>-3.2</ele>
        <time>2020-10-14T13:43:20.100Z</time>
      </trkpt>
      <trkpt lat="45.61408" lon="-1.01302">
        <ele>-3.4</ele>
        <time>2020-10-14T13:43:27.274Z</time>
      </trkpt>
      <trkpt lat="45.61414" lon="-1.01306">
        <ele>-2.8</ele>
        <time>2020-10-14T13:43:34.249Z</time>
      </trkpt>
      <trkpt lat="45.61421" lon="-1.01311">
        <ele>-3.9</ele>
        <time>2020-10-14T13:43:42.207Z</time>
      </trkpt>
      <trkpt lat="45.61427" lon="-1.01315">
        <ele>-3.8</ele>
        <time>2020-10-14T13:43:49.542Z</time>
      </trkpt>
      <trkpt lat="45.61433" lon="-1.01319">
        <ele>-3.8</ele>
        <time>2020-10-14T13:43:57.259Z</time>
      </trkpt>
      <trkpt lat="45.61437" lon="-1.01326">
        <ele>-4.2</ele>
        <time>2020-10-14T13:44:04.315Z</time>
      </trkpt>
      <trkpt lat="45.61443" lon="-1.01332">
        <ele>-3.7</ele>
        <time>2020-10-14T13:44:11.471Z</time>
      </trkpt>
      <trkpt lat="45.61449" lon="-1.01336">
        <ele>-3</ele>
        <time>2020-10-14T13:44:18.821Z</time>
      </trkpt>
      <trkpt lat="45.61454" lon="-1.0134">
        <ele>-2.9</ele>
        <time>2020-10-14T13:44:25.778Z</time>
      </trkpt>
      <trkpt lat="45.61461" lon="-1.01342">
        <ele>-2.4</ele>
        <time>2020-10-14T13:44:33.559Z</time>
      </trkpt>
      <trkpt lat="45.61468" lon="-1.01347">
        <ele>-2.4</ele>
        <time>2020-10-14T13:44:41.300Z</time>
      </trkpt>
      <trkpt lat="45.61474" lon="-1.01349">
        <ele>-2.7</ele>
        <time>2020-10-14T13:44:48.556Z</time>
      </trkpt>
      <trkpt lat="45.6148" lon="-1.01353">
        <ele>-2.2</ele>
        <time>2020-10-14T13:44:56.072Z</time>
      </trkpt>
      <trkpt lat="45.61486" lon="-1.0136">
        <ele>-2.1</ele>
        <time>2020-10-14T13:45:03.487Z</time>
      </trkpt>
      <trkpt lat="45.61492" lon="-1.01363">
        <ele>-2.5</ele>
        <time>2020-10-14T13:45:11.123Z</time>
      </trkpt>
      <trkpt lat="45.61497" lon="-1.01371">
        <ele>-3.5</ele>
        <time>2020-10-14T13:45:18.677Z</time>
      </trkpt>
      <trkpt lat="45.61502" lon="-1.01377">
        <ele>-3.4</ele>
        <time>2020-10-14T13:45:25.923Z</time>
      </trkpt>
      <trkpt lat="45.61507" lon="-1.01383">
        <ele>-3</ele>
        <time>2020-10-14T13:45:33.585Z</time>
      </trkpt>
      <trkpt lat="45.61513" lon="-1.01385">
        <ele>-3.6</ele>
        <time>2020-10-14T13:45:40.790Z</time>
      </trkpt>
      <trkpt lat="45.6152" lon="-1.0139">
        <ele>-4.2</ele>
        <time>2020-10-14T13:45:48.391Z</time>
      </trkpt>
      <trkpt lat="45.61524" lon="-1.01397">
        <ele>-3.3</ele>
        <time>2020-10-14T13:45:55.429Z</time>
      </trkpt>
      <trkpt lat="45.6153" lon="-1.01399">
        <ele>-2.7</ele>
        <time>2020-10-14T13:46:02.349Z</time>
      </trkpt>
      <trkpt lat="45.61536" lon="-1.01405">
        <ele>-3.1</ele>
        <time>2020-10-14T13:46:09.984Z</time>
      </trkpt>
      <trkpt lat="45.61542" lon="-1.01409">
        <ele>-3.3</ele>
        <time>2020-10-14T13:46:17.289Z</time>
      </trkpt>
      <trkpt lat="45.61549" lon="-1.01411">
        <ele>-2.8</ele>
        <time>2020-10-14T13:46:25.233Z</time>
      </trkpt>
      <trkpt lat="45.61555" lon="-1.01416">
        <ele>-3.9</ele>
        <time>2020-10-14T13:46:32.709Z</time>
      </trkpt>
      <trkpt lat="45.61559" lon="-1.01423">
        <ele>-3.5</ele>
        <time>2020-10-14T13:46:39.936Z</time>
      </trkpt>
      <trkpt lat="45.61564" lon="-1.01427">
        <ele>-3.9</ele>
        <time>2020-10-14T13:46:46.848Z</time>
      </trkpt>
      <trkpt lat="45.6157" lon="-1.01434">
        <ele>-3.4</ele>
        <time>2020-10-14T13:46:54.558Z</time>
      </trkpt>
      <trkpt lat="45.61576" lon="-1.01438">
        <ele>-3.2</ele>
        <time>2020-10-14T13:47:02.520Z</time>
      </trkpt>
      <trkpt lat="45.61582" lon="-1.01443">
        <ele>-2.8</ele>
        <time>2020-10-14T13:47:09.730Z</time>
      </trkpt>
      <trkpt lat="45.61588" lon="-1.01448">
        <ele>-2.9</ele>
        <time>2020-10-14T13:47:17.111Z</time>
      </trkpt>
      <trkpt lat="45.61594" lon="-1.01454">
        <ele>-3</ele>
        <time>2020-10-14T13:47:24.740Z</time>
      </trkpt>
      <trkpt lat="45.61599" lon="-1.01461">
        <ele>-3.1</ele>
        <time>2020-10-14T13:47:32.354Z</time>
      </trkpt>
      <trkpt lat="45.61604" lon="-1.01466">
        <ele>-3.5</ele>
        <time>2020-10-14T13:47:39.411Z</time>
      </trkpt>
      <trkpt lat="45.61611" lon="-1.01467">
        <ele>-1.7</ele>
        <time>2020-10-14T13:47:46.830Z</time>
      </trkpt>
      <trkpt lat="45.61617" lon="-1.01469">
        <ele>-3</ele>
        <time>2020-10-14T13:47:54.159Z</time>
      </trkpt>
      <trkpt lat="45.61622" lon="-1.01475">
        <ele>-3.5</ele>
        <time>2020-10-14T13:48:01.574Z</time>
      </trkpt>
      <trkpt lat="45.61627" lon="-1.01482">
        <ele>-2.9</ele>
        <time>2020-10-14T13:48:08.614Z</time>
      </trkpt>
      <trkpt lat="45.61633" lon="-1.01487">
        <ele>-2.6</ele>
        <time>2020-10-14T13:48:16.566Z</time>
      </trkpt>
      <trkpt lat="45.61639" lon="-1.01491">
        <ele>-2.4</ele>
        <time>2020-10-14T13:48:23.855Z</time>
      </trkpt>
      <trkpt lat="45.61645" lon="-1.01496">
        <ele>-2.5</ele>
        <time>2020-10-14T13:48:31.504Z</time>
      </trkpt>
      <trkpt lat="45.61652" lon="-1.01497">
        <ele>-2.3</ele>
        <time>2020-10-14T13:48:38.610Z</time>
      </trkpt>
      <trkpt lat="45.61657" lon="-1.01503">
        <ele>-2.6</ele>
        <time>2020-10-14T13:48:45.812Z</time>
      </trkpt>
      <trkpt lat="45.61658" lon="-1.01512">
        <ele>-2.1</ele>
        <time>2020-10-14T13:48:53.288Z</time>
      </trkpt>
      <trkpt lat="45.61663" lon="-1.01518">
        <ele>-1.5</ele>
        <time>2020-10-14T13:49:00.242Z</time>
      </trkpt>
      <trkpt lat="45.61669" lon="-1.01518">
        <ele>-2.2</ele>
        <time>2020-10-14T13:49:07.257Z</time>
      </trkpt>
      <trkpt lat="45.61673" lon="-1.01526">
        <ele>-3.6</ele>
        <time>2020-10-14T13:49:14.571Z</time>
      </trkpt>
      <trkpt lat="45.61678" lon="-1.01534">
        <ele>-3.9</ele>
        <time>2020-10-14T13:49:22.515Z</time>
      </trkpt>
      <trkpt lat="45.61683" lon="-1.01539">
        <ele>-3.8</ele>
        <time>2020-10-14T13:49:29.475Z</time>
      </trkpt>
      <trkpt lat="45.61689" lon="-1.01546">
        <ele>-3.9</ele>
        <time>2020-10-14T13:49:37.416Z</time>
      </trkpt>
      <trkpt lat="45.61696" lon="-1.01548">
        <ele>-3.2</ele>
        <time>2020-10-14T13:49:45.375Z</time>
      </trkpt>
      <trkpt lat="45.617" lon="-1.01555">
        <ele>-3.1</ele>
        <time>2020-10-14T13:49:52.641Z</time>
      </trkpt>
      <trkpt lat="45.61707" lon="-1.01558">
        <ele>-2.3</ele>
        <time>2020-10-14T13:49:59.647Z</time>
      </trkpt>
      <trkpt lat="45.61714" lon="-1.0156">
        <ele>-2.8</ele>
        <time>2020-10-14T13:50:07.421Z</time>
      </trkpt>
      <trkpt lat="45.61716" lon="-1.01568">
        <ele>-2.3</ele>
        <time>2020-10-14T13:50:14.461Z</time>
      </trkpt>
      <trkpt lat="45.61723" lon="-1.01571">
        <ele>-2.5</ele>
        <time>2020-10-14T13:50:21.768Z</time>
      </trkpt>
      <trkpt lat="45.61729" lon="-1.01576">
        <ele>-1.3</ele>
        <time>2020-10-14T13:50:29.993Z</time>
      </trkpt>
      <trkpt lat="45.61735" lon="-1.01582">
        <ele>-1.3</ele>
        <time>2020-10-14T13:50:37.587Z</time>
      </trkpt>
      <trkpt lat="45.6174" lon="-1.01587">
        <ele>-1.7</ele>
        <time>2020-10-14T13:50:44.517Z</time>
      </trkpt>
      <trkpt lat="45.61741" lon="-1.01597">
        <ele>-2</ele>
        <time>2020-10-14T13:50:52.154Z</time>
      </trkpt>
      <trkpt lat="45.61745" lon="-1.01606">
        <ele>-1.3</ele>
        <time>2020-10-14T13:50:59.531Z</time>
      </trkpt>
      <trkpt lat="45.61751" lon="-1.01609">
        <ele>-0.2</ele>
        <time>2020-10-14T13:51:06.767Z</time>
      </trkpt>
      <trkpt lat="45.61757" lon="-1.01611">
        <ele>-0.3</ele>
        <time>2020-10-14T13:51:14.015Z</time>
      </trkpt>
      <trkpt lat="45.61764" lon="-1.01615">
        <ele>-1.3</ele>
        <time>2020-10-14T13:51:22.169Z</time>
      </trkpt>
      <trkpt lat="45.6177" lon="-1.01619">
        <ele>-2</ele>
        <time>2020-10-14T13:51:29.037Z</time>
      </trkpt>
      <trkpt lat="45.61775" lon="-1.01625">
        <ele>-2</ele>
        <time>2020-10-14T13:51:36.090Z</time>
      </trkpt>
      <trkpt lat="45.6178" lon="-1.01631">
        <ele>-1.2</ele>
        <time>2020-10-14T13:51:43.816Z</time>
      </trkpt>
      <trkpt lat="45.61786" lon="-1.01634">
        <ele>-1.7</ele>
        <time>2020-10-14T13:51:50.772Z</time>
      </trkpt>
      <trkpt lat="45.61791" lon="-1.01639">
        <ele>-2.2</ele>
        <time>2020-10-14T13:51:57.808Z</time>
      </trkpt>
      <trkpt lat="45.61796" lon="-1.01646">
        <ele>-2.1</ele>
        <time>2020-10-14T13:52:04.828Z</time>
      </trkpt>
      <trkpt lat="45.61802" lon="-1.01651">
        <ele>-2</ele>
        <time>2020-10-14T13:52:12.052Z</time>
      </trkpt>
      <trkpt lat="45.61807" lon="-1.01657">
        <ele>-2.1</ele>
        <time>2020-10-14T13:52:19.366Z</time>
      </trkpt>
      <trkpt lat="45.61813" lon="-1.01662">
        <ele>-2.3</ele>
        <time>2020-10-14T13:52:26.621Z</time>
      </trkpt>
      <trkpt lat="45.61818" lon="-1.01667">
        <ele>-2.5</ele>
        <time>2020-10-14T13:52:33.687Z</time>
      </trkpt>
      <trkpt lat="45.61823" lon="-1.01673">
        <ele>-1.7</ele>
        <time>2020-10-14T13:52:41.055Z</time>
      </trkpt>
      <trkpt lat="45.61829" lon="-1.0168">
        <ele>-2.1</ele>
        <time>2020-10-14T13:52:49.120Z</time>
      </trkpt>
      <trkpt lat="45.61835" lon="-1.01681">
        <ele>-1.9</ele>
        <time>2020-10-14T13:52:56.083Z</time>
      </trkpt>
      <trkpt lat="45.6184" lon="-1.01688">
        <ele>-1.8</ele>
        <time>2020-10-14T13:53:03.741Z</time>
      </trkpt>
      <trkpt lat="45.61844" lon="-1.01696">
        <ele>-2.2</ele>
        <time>2020-10-14T13:53:10.814Z</time>
      </trkpt>
      <trkpt lat="45.61849" lon="-1.01703">
        <ele>-2.2</ele>
        <time>2020-10-14T13:53:18.408Z</time>
      </trkpt>
      <trkpt lat="45.61854" lon="-1.01709">
        <ele>-0.8</ele>
        <time>2020-10-14T13:53:26.071Z</time>
      </trkpt>
      <trkpt lat="45.6186" lon="-1.01715">
        <ele>-1.9</ele>
        <time>2020-10-14T13:53:33.601Z</time>
      </trkpt>
      <trkpt lat="45.61864" lon="-1.01723">
        <ele>-2.7</ele>
        <time>2020-10-14T13:53:41.154Z</time>
      </trkpt>
      <trkpt lat="45.61869" lon="-1.0173">
        <ele>-2.3</ele>
        <time>2020-10-14T13:53:48.409Z</time>
      </trkpt>
      <trkpt lat="45.61873" lon="-1.01736">
        <ele>-1.7</ele>
        <time>2020-10-14T13:53:55.381Z</time>
      </trkpt>
      <trkpt lat="45.6188" lon="-1.01739">
        <ele>-0.8</ele>
        <time>2020-10-14T13:54:03.389Z</time>
      </trkpt>
      <trkpt lat="45.61887" lon="-1.01739">
        <ele>-1.3</ele>
        <time>2020-10-14T13:54:10.721Z</time>
      </trkpt>
      <trkpt lat="45.6189" lon="-1.01747">
        <ele>-1.5</ele>
        <time>2020-10-14T13:54:17.737Z</time>
      </trkpt>
      <trkpt lat="45.61893" lon="-1.01755">
        <ele>-0.9</ele>
        <time>2020-10-14T13:54:24.906Z</time>
      </trkpt>
      <trkpt lat="45.619" lon="-1.0176">
        <ele>-1.3</ele>
        <time>2020-10-14T13:54:32.823Z</time>
      </trkpt>
      <trkpt lat="45.61902" lon="-1.01769">
        <ele>-1.4</ele>
        <time>2020-10-14T13:54:40.201Z</time>
      </trkpt>
      <trkpt lat="45.61907" lon="-1.01774">
        <ele>-0.7</ele>
        <time>2020-10-14T13:54:47.168Z</time>
      </trkpt>
      <trkpt lat="45.61913" lon="-1.01778">
        <ele>-0.4</ele>
        <time>2020-10-14T13:54:54.292Z</time>
      </trkpt>
      <trkpt lat="45.61919" lon="-1.01781">
        <ele>-1.5</ele>
        <time>2020-10-14T13:55:01.330Z</time>
      </trkpt>
      <trkpt lat="45.61925" lon="-1.01787">
        <ele>-2.2</ele>
        <time>2020-10-14T13:55:08.547Z</time>
      </trkpt>
      <trkpt lat="45.6193" lon="-1.01792">
        <ele>-1.6</ele>
        <time>2020-10-14T13:55:15.439Z</time>
      </trkpt>
      <trkpt lat="45.61937" lon="-1.01794">
        <ele>-1.9</ele>
        <time>2020-10-14T13:55:23.112Z</time>
      </trkpt>
      <trkpt lat="45.61943" lon="-1.01798">
        <ele>-2.2</ele>
        <time>2020-10-14T13:55:30.271Z</time>
      </trkpt>
      <trkpt lat="45.61947" lon="-1.01804">
        <ele>-3.3</ele>
        <time>2020-10-14T13:55:37.372Z</time>
      </trkpt>
      <trkpt lat="45.61952" lon="-1.0181">
        <ele>-4.1</ele>
        <time>2020-10-14T13:55:44.408Z</time>
      </trkpt>
      <trkpt lat="45.61956" lon="-1.01818">
        <ele>-3.3</ele>
        <time>2020-10-14T13:55:51.624Z</time>
      </trkpt>
      <trkpt lat="45.61962" lon="-1.0182">
        <ele>-3.4</ele>
        <time>2020-10-14T13:55:58.540Z</time>
      </trkpt>
      <trkpt lat="45.61967" lon="-1.01828">
        <ele>-3.5</ele>
        <time>2020-10-14T13:56:06.487Z</time>
      </trkpt>
      <trkpt lat="45.61972" lon="-1.01822">
        <ele>-2.9</ele>
        <time>2020-10-14T13:56:13.445Z</time>
      </trkpt>
      <trkpt lat="45.61975" lon="-1.0183">
        <ele>-3.2</ele>
        <time>2020-10-14T13:56:20.408Z</time>
      </trkpt>
      <trkpt lat="45.61977" lon="-1.01839">
        <ele>-3.1</ele>
        <time>2020-10-14T13:56:27.766Z</time>
      </trkpt>
      <trkpt lat="45.61974" lon="-1.01847">
        <ele>-3</ele>
        <time>2020-10-14T13:56:34.669Z</time>
      </trkpt>
      <trkpt lat="45.61973" lon="-1.01859">
        <ele>-3</ele>
        <time>2020-10-14T13:56:43.585Z</time>
      </trkpt>
      <trkpt lat="45.6197" lon="-1.01849">
        <ele>-2.7</ele>
        <time>2020-10-14T13:56:51.470Z</time>
      </trkpt>
      <trkpt lat="45.61975" lon="-1.01843">
        <ele>-2.6</ele>
        <time>2020-10-14T13:56:58.541Z</time>
      </trkpt>
      <trkpt lat="45.61978" lon="-1.01854">
        <ele>-2.5</ele>
        <time>2020-10-14T13:57:08.081Z</time>
      </trkpt>
      <trkpt lat="45.61973" lon="-1.01861">
        <ele>-2.5</ele>
        <time>2020-10-14T13:57:16.247Z</time>
      </trkpt>
      <trkpt lat="45.61976" lon="-1.01872">
        <ele>-1.3</ele>
        <time>2020-10-14T13:57:24.653Z</time>
      </trkpt>
      <trkpt lat="45.61982" lon="-1.01876">
        <ele>-2.4</ele>
        <time>2020-10-14T13:57:32.586Z</time>
      </trkpt>
      <trkpt lat="45.61989" lon="-1.01878">
        <ele>-1.7</ele>
        <time>2020-10-14T13:57:39.826Z</time>
      </trkpt>
      <trkpt lat="45.61996" lon="-1.0188">
        <ele>-2.3</ele>
        <time>2020-10-14T13:57:47.651Z</time>
      </trkpt>
      <trkpt lat="45.62002" lon="-1.01884">
        <ele>-2.8</ele>
        <time>2020-10-14T13:57:55.391Z</time>
      </trkpt>
      <trkpt lat="45.62008" lon="-1.01889">
        <ele>-2.1</ele>
        <time>2020-10-14T13:58:02.923Z</time>
      </trkpt>
      <trkpt lat="45.62014" lon="-1.01894">
        <ele>-1</ele>
        <time>2020-10-14T13:58:10.483Z</time>
      </trkpt>
      <trkpt lat="45.6202" lon="-1.01899">
        <ele>-1.5</ele>
        <time>2020-10-14T13:58:17.950Z</time>
      </trkpt>
      <trkpt lat="45.62024" lon="-1.01906">
        <ele>-1.5</ele>
        <time>2020-10-14T13:58:25.005Z</time>
      </trkpt>
      <trkpt lat="45.6203" lon="-1.0191">
        <ele>-2.2</ele>
        <time>2020-10-14T13:58:32.119Z</time>
      </trkpt>
      <trkpt lat="45.62036" lon="-1.01914">
        <ele>-2.5</ele>
        <time>2020-10-14T13:58:39.495Z</time>
      </trkpt>
      <trkpt lat="45.62041" lon="-1.01921">
        <ele>-2.7</ele>
        <time>2020-10-14T13:58:46.775Z</time>
      </trkpt>
      <trkpt lat="45.62044" lon="-1.01929">
        <ele>-1.8</ele>
        <time>2020-10-14T13:58:53.788Z</time>
      </trkpt>
      <trkpt lat="45.62049" lon="-1.01934">
        <ele>-2.1</ele>
        <time>2020-10-14T13:59:01.027Z</time>
      </trkpt>
      <trkpt lat="45.62055" lon="-1.01938">
        <ele>-2.7</ele>
        <time>2020-10-14T13:59:08.166Z</time>
      </trkpt>
      <trkpt lat="45.62056" lon="-1.01948">
        <ele>-3.1</ele>
        <time>2020-10-14T13:59:15.655Z</time>
      </trkpt>
      <trkpt lat="45.6206" lon="-1.01956">
        <ele>-2.3</ele>
        <time>2020-10-14T13:59:22.759Z</time>
      </trkpt>
      <trkpt lat="45.62063" lon="-1.01964">
        <ele>-2.4</ele>
        <time>2020-10-14T13:59:29.899Z</time>
      </trkpt>
      <trkpt lat="45.62068" lon="-1.01969">
        <ele>-2.5</ele>
        <time>2020-10-14T13:59:37.037Z</time>
      </trkpt>
      <trkpt lat="45.62073" lon="-1.01975">
        <ele>-2.5</ele>
        <time>2020-10-14T13:59:44.262Z</time>
      </trkpt>
      <trkpt lat="45.62077" lon="-1.01984">
        <ele>-2.4</ele>
        <time>2020-10-14T13:59:52.075Z</time>
      </trkpt>
      <trkpt lat="45.62081" lon="-1.01991">
        <ele>-2.1</ele>
        <time>2020-10-14T13:59:59.078Z</time>
      </trkpt>
      <trkpt lat="45.62086" lon="-1.01998">
        <ele>-1.9</ele>
        <time>2020-10-14T14:00:06.422Z</time>
      </trkpt>
      <trkpt lat="45.62091" lon="-1.02003">
        <ele>-2.9</ele>
        <time>2020-10-14T14:00:13.763Z</time>
      </trkpt>
      <trkpt lat="45.62094" lon="-1.02011">
        <ele>-2.4</ele>
        <time>2020-10-14T14:00:20.647Z</time>
      </trkpt>
      <trkpt lat="45.62097" lon="-1.02021">
        <ele>-1.9</ele>
        <time>2020-10-14T14:00:29.096Z</time>
      </trkpt>
      <trkpt lat="45.62101" lon="-1.02031">
        <ele>-1.9</ele>
        <time>2020-10-14T14:00:37.058Z</time>
      </trkpt>
      <trkpt lat="45.62104" lon="-1.02039">
        <ele>-1.9</ele>
        <time>2020-10-14T14:00:44.439Z</time>
      </trkpt>
      <trkpt lat="45.62109" lon="-1.02045">
        <ele>-2.2</ele>
        <time>2020-10-14T14:00:51.359Z</time>
      </trkpt>
      <trkpt lat="45.62113" lon="-1.02053">
        <ele>-1.4</ele>
        <time>2020-10-14T14:00:59.190Z</time>
      </trkpt>
      <trkpt lat="45.62113" lon="-1.02063">
        <ele>-0.8</ele>
        <time>2020-10-14T14:01:06.704Z</time>
      </trkpt>
      <trkpt lat="45.62112" lon="-1.02072">
        <ele>-0.9</ele>
        <time>2020-10-14T14:01:13.728Z</time>
      </trkpt>
      <trkpt lat="45.62113" lon="-1.02082">
        <ele>-0.8</ele>
        <time>2020-10-14T14:01:21.348Z</time>
      </trkpt>
      <trkpt lat="45.62112" lon="-1.02092">
        <ele>-0.7</ele>
        <time>2020-10-14T14:01:28.471Z</time>
      </trkpt>
      <trkpt lat="45.62117" lon="-1.02097">
        <ele>-0.7</ele>
        <time>2020-10-14T14:01:35.563Z</time>
      </trkpt>
      <trkpt lat="45.62124" lon="-1.02101">
        <ele>-0.6</ele>
        <time>2020-10-14T14:01:43.608Z</time>
      </trkpt>
      <trkpt lat="45.62131" lon="-1.02101">
        <ele>0.9</ele>
        <time>2020-10-14T14:01:51.476Z</time>
      </trkpt>
      <trkpt lat="45.62133" lon="-1.02111">
        <ele>0.3</ele>
        <time>2020-10-14T14:01:59.195Z</time>
      </trkpt>
      <trkpt lat="45.62135" lon="-1.0212">
        <ele>0.1</ele>
        <time>2020-10-14T14:02:06.616Z</time>
      </trkpt>
      <trkpt lat="45.62136" lon="-1.0213">
        <ele>-0.1</ele>
        <time>2020-10-14T14:02:14.343Z</time>
      </trkpt>
      <trkpt lat="45.62138" lon="-1.02139">
        <ele>2</ele>
        <time>2020-10-14T14:02:21.576Z</time>
      </trkpt>
      <trkpt lat="45.62139" lon="-1.02149">
        <ele>0.3</ele>
        <time>2020-10-14T14:02:29.057Z</time>
      </trkpt>
      <trkpt lat="45.62141" lon="-1.02158">
        <ele>0.5</ele>
        <time>2020-10-14T14:02:36.338Z</time>
      </trkpt>
      <trkpt lat="45.62145" lon="-1.02166">
        <ele>0.4</ele>
        <time>2020-10-14T14:02:43.714Z</time>
      </trkpt>
      <trkpt lat="45.62149" lon="-1.02175">
        <ele>0.8</ele>
        <time>2020-10-14T14:02:51.905Z</time>
      </trkpt>
      <trkpt lat="45.62152" lon="-1.02184">
        <ele>1</ele>
        <time>2020-10-14T14:02:59.028Z</time>
      </trkpt>
      <trkpt lat="45.62152" lon="-1.02193">
        <ele>0.9</ele>
        <time>2020-10-14T14:03:06.467Z</time>
      </trkpt>
      <trkpt lat="45.62156" lon="-1.02201">
        <ele>0.2</ele>
        <time>2020-10-14T14:03:13.871Z</time>
      </trkpt>
      <trkpt lat="45.62159" lon="-1.0221">
        <ele>0.1</ele>
        <time>2020-10-14T14:03:21.057Z</time>
      </trkpt>
      <trkpt lat="45.62162" lon="-1.02218">
        <ele>0.3</ele>
        <time>2020-10-14T14:03:28.448Z</time>
      </trkpt>
      <trkpt lat="45.62165" lon="-1.02227">
        <ele>2</ele>
        <time>2020-10-14T14:03:35.649Z</time>
      </trkpt>
      <trkpt lat="45.62165" lon="-1.02236">
        <ele>0.1</ele>
        <time>2020-10-14T14:03:42.592Z</time>
      </trkpt>
      <trkpt lat="45.62164" lon="-1.02248">
        <ele>2</ele>
        <time>2020-10-14T14:03:51.566Z</time>
      </trkpt>
      <trkpt lat="45.62161" lon="-1.02257">
        <ele>-0.4</ele>
        <time>2020-10-14T14:03:59.296Z</time>
      </trkpt>
      <trkpt lat="45.62163" lon="-1.02266">
        <ele>-0.6</ele>
        <time>2020-10-14T14:04:06.281Z</time>
      </trkpt>
      <trkpt lat="45.62167" lon="-1.02273">
        <ele>0.2</ele>
        <time>2020-10-14T14:04:13.840Z</time>
      </trkpt>
      <trkpt lat="45.6217" lon="-1.02282">
        <ele>-0.3</ele>
        <time>2020-10-14T14:04:21.157Z</time>
      </trkpt>
      <trkpt lat="45.62171" lon="-1.02292">
        <ele>-0.1</ele>
        <time>2020-10-14T14:04:29.262Z</time>
      </trkpt>
      <trkpt lat="45.62171" lon="-1.02302">
        <ele>0.2</ele>
        <time>2020-10-14T14:04:36.297Z</time>
      </trkpt>
      <trkpt lat="45.62172" lon="-1.02311">
        <ele>0.1</ele>
        <time>2020-10-14T14:04:43.774Z</time>
      </trkpt>
      <trkpt lat="45.62171" lon="-1.0232">
        <ele>0.1</ele>
        <time>2020-10-14T14:04:50.856Z</time>
      </trkpt>
      <trkpt lat="45.62171" lon="-1.0233">
        <ele>0.2</ele>
        <time>2020-10-14T14:04:58.243Z</time>
      </trkpt>
      <trkpt lat="45.62173" lon="-1.02341">
        <ele>-0.2</ele>
        <time>2020-10-14T14:05:06.332Z</time>
      </trkpt>
      <trkpt lat="45.62172" lon="-1.0235">
        <ele>-0.5</ele>
        <time>2020-10-14T14:05:13.699Z</time>
      </trkpt>
      <trkpt lat="45.62172" lon="-1.0236">
        <ele>-1.2</ele>
        <time>2020-10-14T14:05:21.054Z</time>
      </trkpt>
      <trkpt lat="45.6217" lon="-1.02369">
        <ele>-1.1</ele>
        <time>2020-10-14T14:05:28.630Z</time>
      </trkpt>
      <trkpt lat="45.62168" lon="-1.02378">
        <ele>-1.2</ele>
        <time>2020-10-14T14:05:35.961Z</time>
      </trkpt>
      <trkpt lat="45.62166" lon="-1.02387">
        <ele>-1.3</ele>
        <time>2020-10-14T14:05:42.840Z</time>
      </trkpt>
      <trkpt lat="45.62163" lon="-1.02397">
        <ele>-1.5</ele>
        <time>2020-10-14T14:05:50.775Z</time>
      </trkpt>
      <trkpt lat="45.62161" lon="-1.02387">
        <ele>-2</ele>
        <time>2020-10-14T14:05:58.727Z</time>
      </trkpt>
      <trkpt lat="45.62161" lon="-1.02377">
        <ele>-2.4</ele>
        <time>2020-10-14T14:06:05.947Z</time>
      </trkpt>
      <trkpt lat="45.6216" lon="-1.02366">
        <ele>-3.2</ele>
        <time>2020-10-14T14:06:14.663Z</time>
      </trkpt>
      <trkpt lat="45.62157" lon="-1.02358">
        <ele>-3.4</ele>
        <time>2020-10-14T14:06:21.668Z</time>
      </trkpt>
      <trkpt lat="45.62157" lon="-1.02349">
        <ele>-3.1</ele>
        <time>2020-10-14T14:06:28.537Z</time>
      </trkpt>
      <trkpt lat="45.62157" lon="-1.02339">
        <ele>-2.9</ele>
        <time>2020-10-14T14:06:36.140Z</time>
      </trkpt>
      <trkpt lat="45.62161" lon="-1.0233">
        <ele>-2.8</ele>
        <time>2020-10-14T14:06:43.517Z</time>
      </trkpt>
      <trkpt lat="45.62164" lon="-1.02294">
        <ele>-2.7</ele>
        <time>2020-10-14T14:07:11.004Z</time>
      </trkpt>
      <trkpt lat="45.62165" lon="-1.02314">
        <ele>-2.7</ele>
        <time>2020-10-14T14:07:25.891Z</time>
      </trkpt>
      <trkpt lat="45.62161" lon="-1.02306">
        <ele>-2</ele>
        <time>2020-10-14T14:07:33.564Z</time>
      </trkpt>
      <trkpt lat="45.62157" lon="-1.02299">
        <ele>-2.5</ele>
        <time>2020-10-14T14:07:40.704Z</time>
      </trkpt>
      <trkpt lat="45.62154" lon="-1.02289">
        <ele>-1.4</ele>
        <time>2020-10-14T14:07:48.798Z</time>
      </trkpt>
      <trkpt lat="45.62157" lon="-1.02281">
        <ele>-0.9</ele>
        <time>2020-10-14T14:07:55.850Z</time>
      </trkpt>
      <trkpt lat="45.6216" lon="-1.02272">
        <ele>-2.8</ele>
        <time>2020-10-14T14:08:03.116Z</time>
      </trkpt>
      <trkpt lat="45.62156" lon="-1.02262">
        <ele>-2.4</ele>
        <time>2020-10-14T14:08:11.572Z</time>
      </trkpt>
      <trkpt lat="45.62153" lon="-1.02252">
        <ele>-2.7</ele>
        <time>2020-10-14T14:08:19.805Z</time>
      </trkpt>
      <trkpt lat="45.62156" lon="-1.02244">
        <ele>-2.2</ele>
        <time>2020-10-14T14:08:26.835Z</time>
      </trkpt>
      <trkpt lat="45.62154" lon="-1.02235">
        <ele>-1.4</ele>
        <time>2020-10-14T14:08:34.653Z</time>
      </trkpt>
      <trkpt lat="45.62149" lon="-1.02228">
        <ele>-1.2</ele>
        <time>2020-10-14T14:08:42.187Z</time>
      </trkpt>
      <trkpt lat="45.62147" lon="-1.02218">
        <ele>-1.1</ele>
        <time>2020-10-14T14:08:50.178Z</time>
      </trkpt>
      <trkpt lat="45.62144" lon="-1.02209">
        <ele>-1</ele>
        <time>2020-10-14T14:08:57.388Z</time>
      </trkpt>
      <trkpt lat="45.62141" lon="-1.02201">
        <ele>-0.9</ele>
        <time>2020-10-14T14:09:04.411Z</time>
      </trkpt>
      <trkpt lat="45.62147" lon="-1.02206">
        <ele>-0.6</ele>
        <time>2020-10-14T14:09:12.480Z</time>
      </trkpt>
      <trkpt lat="45.62145" lon="-1.02198">
        <ele>-1</ele>
        <time>2020-10-14T14:09:19.470Z</time>
      </trkpt>
      <trkpt lat="45.62148" lon="-1.02189">
        <ele>-0.4</ele>
        <time>2020-10-14T14:09:26.906Z</time>
      </trkpt>
      <trkpt lat="45.62147" lon="-1.02179">
        <ele>-0.9</ele>
        <time>2020-10-14T14:09:34.132Z</time>
      </trkpt>
      <trkpt lat="45.62144" lon="-1.02171">
        <ele>-1.1</ele>
        <time>2020-10-14T14:09:41.041Z</time>
      </trkpt>
      <trkpt lat="45.62141" lon="-1.02162">
        <ele>-1.5</ele>
        <time>2020-10-14T14:09:48.652Z</time>
      </trkpt>
      <trkpt lat="45.62135" lon="-1.02156">
        <ele>-1.3</ele>
        <time>2020-10-14T14:09:56.236Z</time>
      </trkpt>
      <trkpt lat="45.62135" lon="-1.02146">
        <ele>-0.6</ele>
        <time>2020-10-14T14:10:03.782Z</time>
      </trkpt>
      <trkpt lat="45.62133" lon="-1.02135">
        <ele>-0.5</ele>
        <time>2020-10-14T14:10:12.366Z</time>
      </trkpt>
      <trkpt lat="45.62132" lon="-1.02125">
        <ele>0.1</ele>
        <time>2020-10-14T14:10:20.149Z</time>
      </trkpt>
      <trkpt lat="45.6213" lon="-1.02113">
        <ele>0.6</ele>
        <time>2020-10-14T14:10:29.529Z</time>
      </trkpt>
      <trkpt lat="45.62129" lon="-1.02102">
        <ele>0.8</ele>
        <time>2020-10-14T14:10:37.846Z</time>
      </trkpt>
      <trkpt lat="45.62126" lon="-1.02094">
        <ele>0.5</ele>
        <time>2020-10-14T14:10:44.950Z</time>
      </trkpt>
      <trkpt lat="45.62126" lon="-1.02104">
        <ele>-1.1</ele>
        <time>2020-10-14T14:10:52.520Z</time>
      </trkpt>
      <trkpt lat="45.62132" lon="-1.02101">
        <ele>-0.3</ele>
        <time>2020-10-14T14:10:59.547Z</time>
      </trkpt>
      <trkpt lat="45.62135" lon="-1.0211">
        <ele>-0.1</ele>
        <time>2020-10-14T14:11:06.670Z</time>
      </trkpt>
      <trkpt lat="45.62139" lon="-1.02117">
        <ele>0.1</ele>
        <time>2020-10-14T14:11:13.613Z</time>
      </trkpt>
      <trkpt lat="45.6214" lon="-1.02127">
        <ele>-0.4</ele>
        <time>2020-10-14T14:11:21.160Z</time>
      </trkpt>
      <trkpt lat="45.62143" lon="-1.02135">
        <ele>2.1</ele>
        <time>2020-10-14T14:11:28.105Z</time>
      </trkpt>
      <trkpt lat="45.62146" lon="-1.02144">
        <ele>0.1</ele>
        <time>2020-10-14T14:11:35.893Z</time>
      </trkpt>
      <trkpt lat="45.62147" lon="-1.02154">
        <ele>0.1</ele>
        <time>2020-10-14T14:11:43.528Z</time>
      </trkpt>
      <trkpt lat="45.62149" lon="-1.02163">
        <ele>-0.1</ele>
        <time>2020-10-14T14:11:50.433Z</time>
      </trkpt>
      <trkpt lat="45.62151" lon="-1.02172">
        <ele>0.5</ele>
        <time>2020-10-14T14:11:57.663Z</time>
      </trkpt>
      <trkpt lat="45.62152" lon="-1.02181">
        <ele>0.6</ele>
        <time>2020-10-14T14:12:05.025Z</time>
      </trkpt>
      <trkpt lat="45.62154" lon="-1.02191">
        <ele>0.3</ele>
        <time>2020-10-14T14:12:12.362Z</time>
      </trkpt>
      <trkpt lat="45.62154" lon="-1.02201">
        <ele>-0.1</ele>
        <time>2020-10-14T14:12:20.372Z</time>
      </trkpt>
      <trkpt lat="45.62155" lon="-1.0221">
        <ele>0.4</ele>
        <time>2020-10-14T14:12:27.589Z</time>
      </trkpt>
      <trkpt lat="45.62154" lon="-1.0222">
        <ele>0.3</ele>
        <time>2020-10-14T14:12:35.147Z</time>
      </trkpt>
      <trkpt lat="45.62156" lon="-1.02229">
        <ele>0.3</ele>
        <time>2020-10-14T14:12:42.076Z</time>
      </trkpt>
      <trkpt lat="45.62162" lon="-1.02232">
        <ele>0.6</ele>
        <time>2020-10-14T14:12:49.347Z</time>
      </trkpt>
      <trkpt lat="45.62163" lon="-1.02243">
        <ele>-0.4</ele>
        <time>2020-10-14T14:12:58.187Z</time>
      </trkpt>
      <trkpt lat="45.62163" lon="-1.02254">
        <ele>2</ele>
        <time>2020-10-14T14:13:06.221Z</time>
      </trkpt>
      <trkpt lat="45.62162" lon="-1.02264">
        <ele>0.1</ele>
        <time>2020-10-14T14:13:13.844Z</time>
      </trkpt>
      <trkpt lat="45.62166" lon="-1.02274">
        <ele>0.2</ele>
        <time>2020-10-14T14:13:21.909Z</time>
      </trkpt>
      <trkpt lat="45.62166" lon="-1.02283">
        <ele>0.1</ele>
        <time>2020-10-14T14:13:29.309Z</time>
      </trkpt>
      <trkpt lat="45.62168" lon="-1.02293">
        <ele>0.2</ele>
        <time>2020-10-14T14:13:36.826Z</time>
      </trkpt>
      <trkpt lat="45.62172" lon="-1.02302">
        <ele>0.2</ele>
        <time>2020-10-14T14:13:45.587Z</time>
      </trkpt>
      <trkpt lat="45.62176" lon="-1.0231">
        <ele>0.6</ele>
        <time>2020-10-14T14:13:53.003Z</time>
      </trkpt>
      <trkpt lat="45.62176" lon="-1.0232">
        <ele>0.7</ele>
        <time>2020-10-14T14:14:00.747Z</time>
      </trkpt>
      <trkpt lat="45.62174" lon="-1.02331">
        <ele>0.5</ele>
        <time>2020-10-14T14:14:09.506Z</time>
      </trkpt>
      <trkpt lat="45.62172" lon="-1.02341">
        <ele>1.8</ele>
        <time>2020-10-14T14:14:17.478Z</time>
      </trkpt>
      <trkpt lat="45.6217" lon="-1.0235">
        <ele>1.5</ele>
        <time>2020-10-14T14:14:24.749Z</time>
      </trkpt>
      <trkpt lat="45.62169" lon="-1.0236">
        <ele>-0.3</ele>
        <time>2020-10-14T14:14:31.949Z</time>
      </trkpt>
      <trkpt lat="45.62168" lon="-1.02369">
        <ele>0.2</ele>
        <time>2020-10-14T14:14:39.370Z</time>
      </trkpt>
      <trkpt lat="45.62168" lon="-1.02379">
        <ele>0.1</ele>
        <time>2020-10-14T14:14:46.547Z</time>
      </trkpt>
      <trkpt lat="45.62167" lon="-1.02388">
        <ele>0.2</ele>
        <time>2020-10-14T14:14:53.817Z</time>
      </trkpt>
      <trkpt lat="45.62166" lon="-1.02378">
        <ele>-2.1</ele>
        <time>2020-10-14T14:15:01.559Z</time>
      </trkpt>
      <trkpt lat="45.62167" lon="-1.02369">
        <ele>-2.9</ele>
        <time>2020-10-14T14:15:08.855Z</time>
      </trkpt>
      <trkpt lat="45.62168" lon="-1.0236">
        <ele>-2.3</ele>
        <time>2020-10-14T14:15:15.911Z</time>
      </trkpt>
      <trkpt lat="45.6217" lon="-1.02351">
        <ele>-2.1</ele>
        <time>2020-10-14T14:15:23.048Z</time>
      </trkpt>
      <trkpt lat="45.62167" lon="-1.02342">
        <ele>-2.3</ele>
        <time>2020-10-14T14:15:30.065Z</time>
      </trkpt>
      <trkpt lat="45.62166" lon="-1.02333">
        <ele>-2.8</ele>
        <time>2020-10-14T14:15:37.238Z</time>
      </trkpt>
      <trkpt lat="45.62164" lon="-1.02324">
        <ele>-2.6</ele>
        <time>2020-10-14T14:15:44.255Z</time>
      </trkpt>
      <trkpt lat="45.62162" lon="-1.02314">
        <ele>-2.6</ele>
        <time>2020-10-14T14:15:51.968Z</time>
      </trkpt>
      <trkpt lat="45.62164" lon="-1.02305">
        <ele>-1.8</ele>
        <time>2020-10-14T14:15:59.043Z</time>
      </trkpt>
      <trkpt lat="45.62163" lon="-1.02295">
        <ele>-2</ele>
        <time>2020-10-14T14:16:06.855Z</time>
      </trkpt>
      <trkpt lat="45.62162" lon="-1.02286">
        <ele>-2.5</ele>
        <time>2020-10-14T14:16:14.336Z</time>
      </trkpt>
      <trkpt lat="45.6216" lon="-1.02276">
        <ele>-2.4</ele>
        <time>2020-10-14T14:16:22.164Z</time>
      </trkpt>
      <trkpt lat="45.62163" lon="-1.02266">
        <ele>-2.8</ele>
        <time>2020-10-14T14:16:29.871Z</time>
      </trkpt>
      <trkpt lat="45.62161" lon="-1.02257">
        <ele>-2.9</ele>
        <time>2020-10-14T14:16:36.859Z</time>
      </trkpt>
      <trkpt lat="45.62159" lon="-1.02248">
        <ele>-2.4</ele>
        <time>2020-10-14T14:16:44.071Z</time>
      </trkpt>
      <trkpt lat="45.62157" lon="-1.02239">
        <ele>-1.9</ele>
        <time>2020-10-14T14:16:51.272Z</time>
      </trkpt>
      <trkpt lat="45.62157" lon="-1.02229">
        <ele>-2.4</ele>
        <time>2020-10-14T14:16:58.901Z</time>
      </trkpt>
      <trkpt lat="45.62154" lon="-1.02221">
        <ele>-2.4</ele>
        <time>2020-10-14T14:17:06.017Z</time>
      </trkpt>
      <trkpt lat="45.6215" lon="-1.02213">
        <ele>-2.2</ele>
        <time>2020-10-14T14:17:12.900Z</time>
      </trkpt>
      <trkpt lat="45.62147" lon="-1.02205">
        <ele>-2</ele>
        <time>2020-10-14T14:17:20.023Z</time>
      </trkpt>
      <trkpt lat="45.6214" lon="-1.0218">
        <ele>-1.7</ele>
        <time>2020-10-14T14:17:40.451Z</time>
      </trkpt>
      <trkpt lat="45.62145" lon="-1.02188">
        <ele>-2.6</ele>
        <time>2020-10-14T14:17:48.228Z</time>
      </trkpt>
      <trkpt lat="45.62148" lon="-1.02179">
        <ele>-2</ele>
        <time>2020-10-14T14:17:55.500Z</time>
      </trkpt>
      <trkpt lat="45.62146" lon="-1.02171">
        <ele>-1.8</ele>
        <time>2020-10-14T14:18:02.618Z</time>
      </trkpt>
      <trkpt lat="45.62144" lon="-1.02162">
        <ele>-1.2</ele>
        <time>2020-10-14T14:18:09.946Z</time>
      </trkpt>
      <trkpt lat="45.62139" lon="-1.02155">
        <ele>-1.3</ele>
        <time>2020-10-14T14:18:16.802Z</time>
      </trkpt>
      <trkpt lat="45.62142" lon="-1.02164">
        <ele>-0.9</ele>
        <time>2020-10-14T14:18:24.043Z</time>
      </trkpt>
      <trkpt lat="45.62139" lon="-1.02172">
        <ele>-0.8</ele>
        <time>2020-10-14T14:18:30.998Z</time>
      </trkpt>
      <trkpt lat="45.6214" lon="-1.02182">
        <ele>-0.8</ele>
        <time>2020-10-14T14:18:38.860Z</time>
      </trkpt>
      <trkpt lat="45.62146" lon="-1.0219">
        <ele>-0.6</ele>
        <time>2020-10-14T14:18:47.399Z</time>
      </trkpt>
      <trkpt lat="45.62151" lon="-1.02195">
        <ele>-0.4</ele>
        <time>2020-10-14T14:18:54.372Z</time>
      </trkpt>
      <trkpt lat="45.6215" lon="-1.02206">
        <ele>2</ele>
        <time>2020-10-14T14:19:02.618Z</time>
      </trkpt>
      <trkpt lat="45.62146" lon="-1.02212">
        <ele>2</ele>
        <time>2020-10-14T14:19:09.708Z</time>
      </trkpt>
      <trkpt lat="45.62149" lon="-1.02221">
        <ele>0.5</ele>
        <time>2020-10-14T14:19:17.190Z</time>
      </trkpt>
      <trkpt lat="45.62155" lon="-1.02225">
        <ele>1</ele>
        <time>2020-10-14T14:19:24.294Z</time>
      </trkpt>
      <trkpt lat="45.62159" lon="-1.02233">
        <ele>0.4</ele>
        <time>2020-10-14T14:19:31.690Z</time>
      </trkpt>
      <trkpt lat="45.62161" lon="-1.02242">
        <ele>-0.3</ele>
        <time>2020-10-14T14:19:38.993Z</time>
      </trkpt>
      <trkpt lat="45.62161" lon="-1.02252">
        <ele>-0.6</ele>
        <time>2020-10-14T14:19:46.503Z</time>
      </trkpt>
      <trkpt lat="45.62162" lon="-1.02261">
        <ele>-1.5</ele>
        <time>2020-10-14T14:19:53.451Z</time>
      </trkpt>
      <trkpt lat="45.62162" lon="-1.02268">
        <ele>-0.4</ele>
        <time>2020-10-14T14:19:59.078Z</time>
      </trkpt>
    </trkseg>
  </trk>
</gpx>